x

La Have Bank (44150) Wave Buoy

5:00pm - Thu 11th Feb 2016 All times are AST. -4 hours from GMT.

  • Sig Wave height 9.5ft
  • Peak Period 13s
  • Wind
    18mph, 22mph gusts
  • Sea Temp 47°f
  • Sea Pressure 1002mb
  • La Have Bank
  • La Have Bank

More Historic Weather Station data

Upgrade to MSW Pro to gain access to the past 30 days of data for over 8000 Wavebouys and Weather Stations around the globe.

Join Pro

Comparision Forecast

View Surf forecast
   
Thu 02/11 5:00pm 9.5ft 13s 18 22 mph 1002mb 47f
4:00pm 10ft 13s 18 22 mph 1001.9mb 47f
3:00pm 10ft 12s 18 25 mph 1001.6mb 52f
2:00pm 10.5ft 12s 16 20 mph 1002.1mb 51f
1:00pm 11ft 13s 18 22 mph 1002.5mb 50f
12:00pm 10.5ft 14s 11 18 mph 1002.9mb 49f
11:00am 9.5ft 13s 11 16 mph 1003.3mb 49f
10:00am 9ft 14s 7 9 mph 1002.7mb 49f
9:00am 8.5ft 10s 7 11 mph 1002.9mb 49f
8:00am 8.5ft 12s 7 11 mph 1003.2mb 49f
7:00am 8ft 12s 7 13 mph 1002.1mb 49f
6:00am 8.5ft 14s 18 22 mph 1001.7mb 49f
5:00am 9ft 13s 18 25 mph 1001.5mb 49f
4:00am 8ft 13s 20 25 mph 1001.3mb 49f
3:00am 8.5ft 12s 20 25 mph 1001.4mb 49f
2:00am 8.5ft 13s 18 22 mph 1001.2mb 49f
1:00am 9ft 12s 13 18 mph 1000.4mb 49f
12:00am 10ft 12s 18 22 mph 999.5mb 49f
Wed 02/10 11:00pm 10ft 11s 18 22 mph 998.8mb 49f
10:00pm 9ft 12s 20 25 mph 999mb 49f
9:00pm 8.5ft 11s 18 25 mph 999.4mb 49f
8:00pm 9.5ft 12s 20 22 mph 1000.2mb 49f
7:00pm 8ft 12s 13 18 mph 1001.1mb 49f
6:00pm 9ft 12s 13 18 mph 1000.9mb 49f
5:00pm 11ft 12s 16 20 mph 1000.8mb 49f
4:00pm 11ft 12s 11 16 mph 1001.4mb 50f
3:00pm 11ft 13s 7 9 mph 1002.5mb 50f
2:00pm 10ft 12s 2 9 mph 1002.8mb 50f
1:00pm 12ft 13s 2 7 mph 1003mb 50f
12:00pm 11.5ft 14s 2 7 mph 1003.3mb 49f
11:00am 10.5ft 14s 4 7 mph 1003.7mb 45f
10:00am 9ft 11s 2 4 mph 1004.3mb 44f
9:00am 8.5ft 12s 4 9 mph 1004.1mb 46f
8:00am 8ft 12s 4 9 mph 1004.1mb 52f
7:00am 8.5ft 11s 11 16 mph 1001.8mb 51f
6:00am 8.5ft 12s 9 16 mph 1002.8mb 51f
5:00am 8ft 11s 13 18 mph 1002.9mb 49f
4:00am 8ft 11s 20 27 mph 1001.3mb 49f
3:00am 9ft 12s 22 29 mph 1001.6mb 48f
2:00am 9ft 13s 20 31 mph 1000.4mb 47f
1:00am 9.5ft 12s 18 22 mph 998.6mb 47f
12:00am 9ft 12s 20 25 mph 997mb 47f
Tue 02/09 11:00pm 10.5ft 13s 22 27 mph 995.6mb 47f
10:00pm 10.5ft 11s 25 31 mph 994.8mb 47f
9:00pm 11.5ft 12s 25 31 mph 994.8mb 46f
8:00pm 11.5ft 13s 25 54 mph 995.9mb 46f
7:00pm 13ft 13s 22 34 mph 995.8mb 47f
6:00pm 15.5ft 14s 22 34 mph 995.8mb 51f
5:00pm 15ft 12s 18 27 mph 997.6mb 51f
4:00pm 15.5ft 13s 11 20 mph 999.5mb 50f
3:00pm 19.5ft 14s 7 11 mph 1001.3mb 49f
2:00pm 17ft 12s 11 18 mph 1001.7mb 49f
1:00pm 20.5ft 14s 11 18 mph 1002.7mb 49f
12:00pm 19.5ft 14s 16 22 mph 1002.8mb 48f
11:00am 20ft 12s 16 22 mph 1003.2mb 48f
10:00am 23ft 13s 18 25 mph 1003.1mb 48f
9:00am 21.5ft 16s 18 27 mph 1002.6mb 48f
8:00am 23ft 14s 16 22 mph 1001.7mb 48f
7:00am 23.5ft 12s 18 25 mph 1001mb 48f
6:00am 27.5ft 14s 20 31 mph 999.8mb 49f
5:00am 25.5ft 12s 22 34 mph 998.5mb 50f
4:00am 27.5ft 13s 25 36 mph 997.3mb 52f
3:00am 29ft 14s 27 34 mph 995.1mb 52f
2:00am 30ft 14s 27 34 mph 993.6mb 53f
1:00am 27.5ft 13s 31 40 mph 992mb 53f
12:00am 35ft 14s  -  mph 990.2mb 52f
Mon 02/08 11:00pm 30.5ft 14s 36 45 mph 989.7mb 52f
10:00pm 33ft 13s 43 54 mph 988.5mb 51f
9:00pm 31.5ft 12s 47 58 mph 987.8mb 50f
8:00pm 33ft 13s 45 63 mph 988.1mb 49f
7:00pm 29ft 13s 49 63 mph 988.5mb 48f
6:00pm 29ft 11s 47 60 mph 989.7mb 47f
5:00pm 25.5ft 12s 47
mph
990.8mb 47f
4:00pm  -   -  45
mph
992.6mb -
3:00pm 26ft 11s 43 56 mph 994.2mb 46f
2:00pm 22.5ft 10s 45 58 mph 995.2mb 45f
1:00pm  -   -  47
mph
- -
12:00pm 20.5ft 10s 47 60 mph 999mb 43f
11:00am 17.5ft 9s 49 63 mph 1000.5mb 42f
10:00am  -   -  47
mph
1003.7mb -
9:00am 14.5ft 8s 45 56 mph 1006.4mb 42f
8:00am 12ft 8s 43 67 mph 1005.5mb 42f
7:00am 11ft 8s 36
mph
1011.3mb 42f
6:00am 11ft 7s 36
mph
1012.5mb 42f
5:00am 9ft 6s 34 43 mph 1013.4mb 42f
4:00am 8ft 6s 34 43 mph 1014.9mb 42f
3:00am 7ft 5s 31 40 mph 1016.2mb 42f
2:00am 6.5ft 5s 29
mph
1017.4mb 42f
1:00am 5.5ft 5s 27 34 mph 1018.4mb 42f
12:00am 4.5ft 7s 22 29 mph 1019.8mb 42f
Sun 02/07 11:00pm 4.5ft 7s 22 27 mph 1020.4mb 42f